sensor_id;sensor_type;location;lat;lon;timestamp;pressure;altitude;pressure_sealevel;temperature;humidity
5954;BME280;3002;42.642;24.812;2022-12-07T00:01:25;96530.84;;;10.45;100.00
5954;BME280;3002;42.642;24.812;2022-12-07T00:03:53;96546.38;;;10.43;100.00
5954;BME280;3002;42.642;24.812;2022-12-07T00:06:20;96557.22;;;9.99;100.00
5954;BME280;3002;42.642;24.812;2022-12-07T00:08:46;96555.47;;;9.84;100.00
5954;BME280;3002;42.642;24.812;2022-12-07T00:11:15;96549.31;;;10.12;100.00
5954;BME280;3002;42.642;24.812;2022-12-07T00:13:41;96537.53;;;9.84;100.00
5954;BME280;3002;42.642;24.812;2022-12-07T00:16:09;96532.59;;;9.97;100.00
5954;BME280;3002;42.642;24.812;2022-12-07T00:18:36;96536.44;;;10.19;100.00
5954;BME280;3002;42.642;24.812;2022-12-07T00:21:07;96547.44;;;9.84;100.00
5954;BME280;3002;42.642;24.812;2022-12-07T00:23:34;96542.84;;;10.18;100.00
5954;BME280;3002;42.642;24.812;2022-12-07T00:26:06;96540.56;;;10.36;100.00
5954;BME280;3002;42.642;24.812;2022-12-07T00:28:32;96529.44;;;10.18;100.00
5954;BME280;3002;42.642;24.812;2022-12-07T00:31:03;96568.69;;;10.38;100.00
5954;BME280;3002;42.642;24.812;2022-12-07T00:33:29;96549.31;;;10.12;100.00
5954;BME280;3002;42.642;24.812;2022-12-07T00:35:56;96564.13;;;10.39;100.00
5954;BME280;3002;42.642;24.812;2022-12-07T00:38:22;96551.66;;;10.24;100.00
5954;BME280;3002;42.642;24.812;2022-12-07T00:41:02;96553.38;;;10.10;100.00
5954;BME280;3002;42.642;24.812;2022-12-07T00:43:28;96552.59;;;9.75;100.00
5954;BME280;3002;42.642;24.812;2022-12-07T00:45:54;96549.00;;;9.90;100.00
5954;BME280;3002;42.642;24.812;2022-12-07T00:48:20;96551.75;;;9.80;100.00
5954;BME280;3002;42.642;24.812;2022-12-07T00:50:46;96550.28;;;9.98;100.00
5954;BME280;3002;42.642;24.812;2022-12-07T00:53:12;96549.44;;;10.02;100.00
5954;BME280;3002;42.642;24.812;2022-12-07T00:55:38;96555.72;;;10.16;100.00
5954;BME280;3002;42.642;24.812;2022-12-07T00:58:04;96517.03;;;9.99;100.00
5954;BME280;3002;42.642;24.812;2022-12-07T01:00:30;96536.16;;;9.87;100.00
5954;BME280;3002;42.642;24.812;2022-12-07T01:02:55;96541.72;;;9.96;100.00
5954;BME280;3002;42.642;24.812;2022-12-07T01:05:21;96529.75;;;9.83;100.00
5954;BME280;3002;42.642;24.812;2022-12-07T01:07:46;96538.81;;;9.92;100.00
5954;BME280;3002;42.642;24.812;2022-12-07T01:10:13;96534.59;;;10.15;100.00
5954;BME280;3002;42.642;24.812;2022-12-07T01:12:39;96522.69;;;9.97;100.00
5954;BME280;3002;42.642;24.812;2022-12-07T01:15:05;96517.88;;;9.94;100.00
5954;BME280;3002;42.642;24.812;2022-12-07T01:17:31;96540.38;;;9.93;100.00
5954;BME280;3002;42.642;24.812;2022-12-07T01:19:56;96515.69;;;9.67;100.00
5954;BME280;3002;42.642;24.812;2022-12-07T01:22:22;96525.00;;;9.75;100.00
5954;BME280;3002;42.642;24.812;2022-12-07T01:24:47;96535.66;;;9.85;100.00
5954;BME280;3002;42.642;24.812;2022-12-07T01:27:13;96496.78;;;9.53;100.00
5954;BME280;3002;42.642;24.812;2022-12-07T01:29:39;96503.66;;;9.64;100.00
5954;BME280;3002;42.642;24.812;2022-12-07T01:32:04;96522.31;;;9.75;100.00
5954;BME280;3002;42.642;24.812;2022-12-07T01:34:30;96500.91;;;9.35;100.00
5954;BME280;3002;42.642;24.812;2022-12-07T01:36:55;96487.31;;;9.32;100.00
5954;BME280;3002;42.642;24.812;2022-12-07T01:39:21;96508.81;;;9.56;100.00
5954;BME280;3002;42.642;24.812;2022-12-07T01:41:47;96491.94;;;9.60;100.00
5954;BME280;3002;42.642;24.812;2022-12-07T01:46:54;96491.59;;;9.67;100.00
5954;BME280;3002;42.642;24.812;2022-12-07T01:52:25;96476.75;;;9.46;100.00
5954;BME280;3002;42.642;24.812;2022-12-07T01:54:52;96474.22;;;9.30;100.00
5954;BME280;3002;42.642;24.812;2022-12-07T01:57:19;96502.97;;;9.54;100.00
5954;BME280;3002;42.642;24.812;2022-12-07T01:59:45;96478.44;;;9.36;100.00
5954;BME280;3002;42.642;24.812;2022-12-07T02:02:29;96473.81;;;9.47;100.00
5954;BME280;3002;42.642;24.812;2022-12-07T02:04:59;96489.75;;;9.62;100.00
5954;BME280;3002;42.642;24.812;2022-12-07T02:07:25;96499.16;;;9.60;100.00
5954;BME280;3002;42.642;24.812;2022-12-07T02:09:52;96485.91;;;9.39;100.00
5954;BME280;3002;42.642;24.812;2022-12-07T02:12:17;96484.91;;;9.30;100.00
5954;BME280;3002;42.642;24.812;2022-12-07T02:14:43;96475.06;;;9.21;100.00
5954;BME280;3002;42.642;24.812;2022-12-07T02:24:55;96487.84;;;9.29;100.00
5954;BME280;3002;42.642;24.812;2022-12-07T02:27:47;96485.84;;;9.50;100.00
5954;BME280;3002;42.642;24.812;2022-12-07T02:30:20;96472.59;;;9.29;100.00
5954;BME280;3002;42.642;24.812;2022-12-07T02:35:34;96459.72;;;9.36;100.00
5954;BME280;3002;42.642;24.812;2022-12-07T02:40:35;96473.66;;;9.33;100.00
5954;BME280;3002;42.642;24.812;2022-12-07T02:43:16;96466.63;;;9.43;100.00
5954;BME280;3002;42.642;24.812;2022-12-07T02:45:45;96474.88;;;9.46;100.00
5954;BME280;3002;42.642;24.812;2022-12-07T02:48:14;96480.19;;;9.51;100.00
5954;BME280;3002;42.642;24.812;2022-12-07T02:50:59;96454.34;;;9.42;100.00
5954;BME280;3002;42.642;24.812;2022-12-07T02:53:51;96478.16;;;9.38;100.00
5954;BME280;3002;42.642;24.812;2022-12-07T03:07:11;96475.63;;;9.18;100.00
5954;BME280;3002;42.642;24.812;2022-12-07T03:09:44;96467.63;;;9.13;100.00
5954;BME280;3002;42.642;24.812;2022-12-07T03:12:20;96447.00;;;9.18;100.00
5954;BME280;3002;42.642;24.812;2022-12-07T03:15:13;96453.56;;;9.36;100.00
5954;BME280;3002;42.642;24.812;2022-12-07T03:17:39;96475.75;;;9.42;100.00
5954;BME280;3002;42.642;24.812;2022-12-07T03:20:07;96466.19;;;9.30;100.00
5954;BME280;3002;42.642;24.812;2022-12-07T03:22:35;96462.72;;;9.30;100.00
5954;BME280;3002;42.642;24.812;2022-12-07T03:25:07;96465.78;;;9.47;100.00
5954;BME280;3002;42.642;24.812;2022-12-07T03:27:43;96453.94;;;9.53;100.00
5954;BME280;3002;42.642;24.812;2022-12-07T03:30:17;96452.69;;;9.46;100.00
5954;BME280;3002;42.642;24.812;2022-12-07T03:32:48;96467.84;;;9.60;100.00
5954;BME280;3002;42.642;24.812;2022-12-07T03:35:22;96471.06;;;9.57;100.00
5954;BME280;3002;42.642;24.812;2022-12-07T03:38:22;96464.06;;;9.61;100.00
5954;BME280;3002;42.642;24.812;2022-12-07T03:43:15;96473.88;;;9.42;100.00
5954;BME280;3002;42.642;24.812;2022-12-07T03:45:44;96464.19;;;9.46;100.00
5954;BME280;3002;42.642;24.812;2022-12-07T03:51:26;96452.00;;;9.64;100.00
5954;BME280;3002;42.642;24.812;2022-12-07T03:56:52;96467.69;;;9.76;100.00
5954;BME280;3002;42.642;24.812;2022-12-07T03:59:19;96462.00;;;9.82;100.00
5954;BME280;3002;42.642;24.812;2022-12-07T04:01:55;96450.88;;;9.70;100.00
5954;BME280;3002;42.642;24.812;2022-12-07T04:04:22;96438.97;;;9.52;100.00
5954;BME280;3002;42.642;24.812;2022-12-07T04:06:48;96442.75;;;9.46;100.00
5954;BME280;3002;42.642;24.812;2022-12-07T04:09:14;96434.16;;;9.54;100.00
5954;BME280;3002;42.642;24.812;2022-12-07T04:11:40;96445.03;;;9.63;100.00
5954;BME280;3002;42.642;24.812;2022-12-07T04:14:05;96436.88;;;9.49;100.00
5954;BME280;3002;42.642;24.812;2022-12-07T04:16:44;96446.44;;;9.55;100.00
5954;BME280;3002;42.642;24.812;2022-12-07T04:19:10;96452.81;;;9.59;100.00
5954;BME280;3002;42.642;24.812;2022-12-07T04:21:36;96437.31;;;9.22;100.00
5954;BME280;3002;42.642;24.812;2022-12-07T04:24:01;96428.00;;;9.20;100.00
5954;BME280;3002;42.642;24.812;2022-12-07T04:26:27;96460.25;;;9.33;100.00
5954;BME280;3002;42.642;24.812;2022-12-07T04:28:52;96446.47;;;9.16;100.00
5954;BME280;3002;42.642;24.812;2022-12-07T04:31:18;96438.25;;;9.07;100.00
5954;BME280;3002;42.642;24.812;2022-12-07T04:33:43;96406.25;;;8.87;100.00
5954;BME280;3002;42.642;24.812;2022-12-07T04:36:09;96439.09;;;8.98;100.00
5954;BME280;3002;42.642;24.812;2022-12-07T04:38:35;96407.94;;;8.78;100.00
5954;BME280;3002;42.642;24.812;2022-12-07T04:41:09;96429.81;;;8.85;100.00
5954;BME280;3002;42.642;24.812;2022-12-07T04:43:35;96425.94;;;8.62;100.00
5954;BME280;3002;42.642;24.812;2022-12-07T04:46:01;96442.69;;;8.83;100.00
5954;BME280;3002;42.642;24.812;2022-12-07T04:48:27;96437.25;;;8.93;100.00
5954;BME280;3002;42.642;24.812;2022-12-07T04:50:53;96438.19;;;8.68;100.00
5954;BME280;3002;42.642;24.812;2022-12-07T04:53:19;96434.97;;;8.71;100.00
5954;BME280;3002;42.642;24.812;2022-12-07T04:55:45;96430.75;;;8.60;100.00
5954;BME280;3002;42.642;24.812;2022-12-07T04:58:11;96424.66;;;8.49;100.00
5954;BME280;3002;42.642;24.812;2022-12-07T05:00:37;96437.63;;;8.76;100.00
5954;BME280;3002;42.642;24.812;2022-12-07T05:03:03;96429.63;;;8.71;100.00
5954;BME280;3002;42.642;24.812;2022-12-07T05:05:28;96443.69;;;8.38;100.00
5954;BME280;3002;42.642;24.812;2022-12-07T05:07:54;96432.88;;;8.63;100.00
5954;BME280;3002;42.642;24.812;2022-12-07T05:10:19;96455.97;;;8.93;100.00
5954;BME280;3002;42.642;24.812;2022-12-07T05:12:45;96445.69;;;8.66;100.00
5954;BME280;3002;42.642;24.812;2022-12-07T05:15:12;96447.56;;;8.71;100.00
5954;BME280;3002;42.642;24.812;2022-12-07T05:17:37;96435.13;;;8.30;100.00
5954;BME280;3002;42.642;24.812;2022-12-07T05:20:04;96458.16;;;8.16;100.00
5954;BME280;3002;42.642;24.812;2022-12-07T05:22:30;96455.72;;;8.20;100.00
5954;BME280;3002;42.642;24.812;2022-12-07T05:24:55;96440.50;;;8.20;100.00
5954;BME280;3002;42.642;24.812;2022-12-07T05:27:21;96440.25;;;8.22;100.00
5954;BME280;3002;42.642;24.812;2022-12-07T05:29:46;96423.19;;;8.02;100.00
5954;BME280;3002;42.642;24.812;2022-12-07T05:32:12;96440.75;;;8.29;100.00
5954;BME280;3002;42.642;24.812;2022-12-07T05:34:38;96435.13;;;8.36;100.00
5954;BME280;3002;42.642;24.812;2022-12-07T05:37:03;96429.59;;;8.12;100.00
5954;BME280;3002;42.642;24.812;2022-12-07T05:39:29;96431.47;;;8.11;100.00
5954;BME280;3002;42.642;24.812;2022-12-07T05:41:54;96426.31;;;8.25;100.00
5954;BME280;3002;42.642;24.812;2022-12-07T05:44:45;96449.78;;;8.53;100.00
5954;BME280;3002;42.642;24.812;2022-12-07T05:47:12;96433.84;;;8.18;100.00
5954;BME280;3002;42.642;24.812;2022-12-07T05:49:38;96451.97;;;8.26;100.00
5954;BME280;3002;42.642;24.812;2022-12-07T05:52:05;96465.84;;;8.43;100.00
5954;BME280;3002;42.642;24.812;2022-12-07T05:54:30;96433.06;;;8.07;100.00
5954;BME280;3002;42.642;24.812;2022-12-07T05:56:56;96431.53;;;7.86;100.00
5954;BME280;3002;42.642;24.812;2022-12-07T05:59:21;96459.19;;;8.20;100.00
5954;BME280;3002;42.642;24.812;2022-12-07T06:01:58;96473.31;;;8.46;100.00
5954;BME280;3002;42.642;24.812;2022-12-07T06:04:25;96465.81;;;8.48;100.00
5954;BME280;3002;42.642;24.812;2022-12-07T06:06:53;96445.81;;;8.46;100.00
5954;BME280;3002;42.642;24.812;2022-12-07T06:09:20;96435.59;;;8.53;100.00
5954;BME280;3002;42.642;24.812;2022-12-07T06:11:46;96425.44;;;8.55;100.00
5954;BME280;3002;42.642;24.812;2022-12-07T06:14:30;96448.72;;;8.44;100.00
5954;BME280;3002;42.642;24.812;2022-12-07T06:16:56;96458.09;;;8.42;100.00
5954;BME280;3002;42.642;24.812;2022-12-07T06:19:22;96460.38;;;8.69;100.00
5954;BME280;3002;42.642;24.812;2022-12-07T06:21:47;96461.38;;;8.83;100.00
5954;BME280;3002;42.642;24.812;2022-12-07T06:24:14;96466.28;;;9.15;100.00
5954;BME280;3002;42.642;24.812;2022-12-07T06:26:40;96445.78;;;9.00;100.00
5954;BME280;3002;42.642;24.812;2022-12-07T06:29:06;96469.56;;;9.02;100.00
5954;BME280;3002;42.642;24.812;2022-12-07T06:31:32;96437.03;;;8.90;100.00
5954;BME280;3002;42.642;24.812;2022-12-07T06:33:59;96464.34;;;9.26;100.00
5954;BME280;3002;42.642;24.812;2022-12-07T06:36:24;96466.25;;;9.20;100.00
5954;BME280;3002;42.642;24.812;2022-12-07T06:38:50;96446.84;;;9.38;100.00
5954;BME280;3002;42.642;24.812;2022-12-07T06:41:15;96454.59;;;9.74;100.00
5954;BME280;3002;42.642;24.812;2022-12-07T06:43:41;96474.69;;;9.72;100.00
5954;BME280;3002;42.642;24.812;2022-12-07T06:46:07;96486.03;;;9.92;100.00
5954;BME280;3002;42.642;24.812;2022-12-07T06:48:33;96479.91;;;9.87;100.00
5954;BME280;3002;42.642;24.812;2022-12-07T06:50:58;96471.41;;;10.09;100.00
5954;BME280;3002;42.642;24.812;2022-12-07T06:53:24;96494.69;;;10.37;100.00
5954;BME280;3002;42.642;24.812;2022-12-07T06:55:50;96477.06;;;10.31;100.00
5954;BME280;3002;42.642;24.812;2022-12-07T06:58:16;96466.34;;;10.31;100.00
5954;BME280;3002;42.642;24.812;2022-12-07T07:00:41;96471.81;;;10.26;100.00
5954;BME280;3002;42.642;24.812;2022-12-07T07:03:07;96463.97;;;10.54;100.00
5954;BME280;3002;42.642;24.812;2022-12-07T07:05:32;96482.16;;;10.81;100.00
5954;BME280;3002;42.642;24.812;2022-12-07T07:07:58;96474.69;;;10.54;100.00
5954;BME280;3002;42.642;24.812;2022-12-07T07:10:23;96465.56;;;10.55;100.00
5954;BME280;3002;42.642;24.812;2022-12-07T07:12:49;96457.41;;;10.41;100.00
5954;BME280;3002;42.642;24.812;2022-12-07T07:15:14;96468.84;;;9.64;100.00
5954;BME280;3002;42.642;24.812;2022-12-07T07:17:40;96464.75;;;9.43;100.00
5954;BME280;3002;42.642;24.812;2022-12-07T07:20:06;96484.13;;;9.93;100.00
5954;BME280;3002;42.642;24.812;2022-12-07T07:22:31;96449.97;;;9.80;100.00
5954;BME280;3002;42.642;24.812;2022-12-07T07:24:57;96455.44;;;9.99;100.00
5954;BME280;3002;42.642;24.812;2022-12-07T07:27:22;96478.44;;;10.77;100.00
5954;BME280;3002;42.642;24.812;2022-12-07T07:29:48;96478.53;;;10.90;100.00
5954;BME280;3002;42.642;24.812;2022-12-07T07:32:13;96464.91;;;10.87;100.00
5954;BME280;3002;42.642;24.812;2022-12-07T07:34:39;96458.94;;;10.90;100.00
5954;BME280;3002;42.642;24.812;2022-12-07T07:37:06;96457.78;;;11.15;100.00
5954;BME280;3002;42.642;24.812;2022-12-07T07:39:31;96462.66;;;10.75;100.00
5954;BME280;3002;42.642;24.812;2022-12-07T07:41:57;96465.88;;;11.34;100.00
5954;BME280;3002;42.642;24.812;2022-12-07T07:44:22;96470.56;;;11.74;100.00
5954;BME280;3002;42.642;24.812;2022-12-07T07:46:48;96483.66;;;12.14;97.89
5954;BME280;3002;42.642;24.812;2022-12-07T07:49:13;96482.06;;;12.40;95.40
5954;BME280;3002;42.642;24.812;2022-12-07T07:51:39;96484.47;;;12.28;97.42
5954;BME280;3002;42.642;24.812;2022-12-07T07:54:04;96501.63;;;11.48;100.00
5954;BME280;3002;42.642;24.812;2022-12-07T07:56:30;96493.22;;;11.87;100.00
5954;BME280;3002;42.642;24.812;2022-12-07T07:58:56;96477.44;;;11.80;100.00
5954;BME280;3002;42.642;24.812;2022-12-07T08:01:22;96481.06;;;12.22;95.92
5954;BME280;3002;42.642;24.812;2022-12-07T08:03:48;96484.84;;;12.35;96.28
5954;BME280;3002;42.642;24.812;2022-12-07T08:06:15;96479.19;;;12.92;91.11
5954;BME280;3002;42.642;24.812;2022-12-07T08:08:40;96498.34;;;12.49;92.56
5954;BME280;3002;42.642;24.812;2022-12-07T08:11:08;96460.47;;;12.31;94.49
5954;BME280;3002;42.642;24.812;2022-12-07T08:13:35;96473.22;;;12.81;89.53
5954;BME280;3002;42.642;24.812;2022-12-07T08:16:05;96489.25;;;12.45;90.46
5954;BME280;3002;42.642;24.812;2022-12-07T08:18:35;96506.00;;;12.97;89.99
5954;BME280;3002;42.642;24.812;2022-12-07T08:21:02;96470.63;;;12.62;89.53
5954;BME280;3002;42.642;24.812;2022-12-07T08:23:28;96506.19;;;12.45;93.60
5954;BME280;3002;42.642;24.812;2022-12-07T08:25:54;96499.50;;;12.98;90.11
5954;BME280;3002;42.642;24.812;2022-12-07T08:28:19;96476.00;;;12.90;88.57
5954;BME280;3002;42.642;24.812;2022-12-07T08:30:45;96481.09;;;12.36;94.27
5954;BME280;3002;42.642;24.812;2022-12-07T08:33:10;96492.66;;;10.77;100.00
5954;BME280;3002;42.642;24.812;2022-12-07T08:35:36;96469.97;;;11.45;100.00
5954;BME280;3002;42.642;24.812;2022-12-07T08:38:02;96483.97;;;12.40;98.23
5954;BME280;3002;42.642;24.812;2022-12-07T08:40:28;96473.91;;;12.59;95.95
5954;BME280;3002;42.642;24.812;2022-12-07T08:42:54;96484.72;;;13.23;91.21
5954;BME280;3002;42.642;24.812;2022-12-07T08:45:21;96459.50;;;14.08;83.88
5954;BME280;3002;42.642;24.812;2022-12-07T08:48:08;96485.72;;;14.87;77.15
5954;BME280;3002;42.642;24.812;2022-12-07T08:50:36;96482.28;;;15.13;73.77
5954;BME280;3002;42.642;24.812;2022-12-07T08:53:03;96488.31;;;13.99;76.67
5954;BME280;3002;42.642;24.812;2022-12-07T08:55:30;96486.69;;;13.31;81.98
5954;BME280;3002;42.642;24.812;2022-12-07T08:57:58;96455.50;;;13.52;82.64
5954;BME280;3002;42.642;24.812;2022-12-07T09:00:24;96443.06;;;13.87;79.77
5954;BME280;3002;42.642;24.812;2022-12-07T09:02:51;96479.66;;;13.80;80.20
5954;BME280;3002;42.642;24.812;2022-12-07T09:05:16;96452.03;;;13.52;83.90
5954;BME280;3002;42.642;24.812;2022-12-07T09:07:43;96478.41;;;13.86;82.36
5954;BME280;3002;42.642;24.812;2022-12-07T09:10:10;96472.06;;;13.23;85.30
5954;BME280;3002;42.642;24.812;2022-12-07T09:12:36;96461.38;;;12.68;91.73
5954;BME280;3002;42.642;24.812;2022-12-07T09:15:02;96431.75;;;13.18;86.40
5954;BME280;3002;42.642;24.812;2022-12-07T09:17:27;96471.63;;;12.39;91.85
5954;BME280;3002;42.642;24.812;2022-12-07T09:19:56;96456.19;;;12.58;91.21
5954;BME280;3002;42.642;24.812;2022-12-07T09:22:22;96434.03;;;11.92;96.18
5954;BME280;3002;42.642;24.812;2022-12-07T09:24:47;96435.84;;;12.11;94.71
5954;BME280;3002;42.642;24.812;2022-12-07T09:27:13;96435.91;;;11.59;96.25
5954;BME280;3002;42.642;24.812;2022-12-07T09:29:38;96448.16;;;11.98;96.04
5954;BME280;3002;42.642;24.812;2022-12-07T09:32:04;96416.44;;;12.55;90.95
5954;BME280;3002;42.642;24.812;2022-12-07T09:34:31;96397.63;;;12.27;91.54
5954;BME280;3002;42.642;24.812;2022-12-07T09:36:57;96423.41;;;13.06;86.67
5954;BME280;3002;42.642;24.812;2022-12-07T09:39:22;96418.41;;;12.63;92.60
5954;BME280;3002;42.642;24.812;2022-12-07T09:41:48;96416.66;;;12.95;91.13
5954;BME280;3002;42.642;24.812;2022-12-07T09:44:21;96395.13;;;12.95;92.33
5954;BME280;3002;42.642;24.812;2022-12-07T09:46:48;96426.56;;;12.85;92.94
5954;BME280;3002;42.642;24.812;2022-12-07T09:49:28;96414.44;;;13.10;89.64
5954;BME280;3002;42.642;24.812;2022-12-07T09:54:41;96390.41;;;13.36;87.65
5954;BME280;3002;42.642;24.812;2022-12-07T09:57:11;96410.59;;;13.92;86.29
5954;BME280;3002;42.642;24.812;2022-12-07T09:59:38;96416.91;;;13.88;85.71
5954;BME280;3002;42.642;24.812;2022-12-07T10:02:43;96410.59;;;12.89;93.70
5954;BME280;3002;42.642;24.812;2022-12-07T10:05:35;96409.47;;;13.04;92.01
5954;BME280;3002;42.642;24.812;2022-12-07T10:08:02;96424.19;;;11.88;100.00
5954;BME280;3002;42.642;24.812;2022-12-07T10:10:33;96416.56;;;12.36;99.06
5954;BME280;3002;42.642;24.812;2022-12-07T10:18:37;96408.91;;;11.50;100.00
5954;BME280;3002;42.642;24.812;2022-12-07T10:23:35;96387.94;;;12.68;99.28
5954;BME280;3002;42.642;24.812;2022-12-07T10:26:25;96387.25;;;13.34;89.35
5954;BME280;3002;42.642;24.812;2022-12-07T10:28:53;96353.69;;;13.41;87.78
5954;BME280;3002;42.642;24.812;2022-12-07T10:31:21;96339.31;;;14.16;82.06
5954;BME280;3002;42.642;24.812;2022-12-07T10:33:48;96376.75;;;14.66;78.57
5954;BME280;3002;42.642;24.812;2022-12-07T10:36:20;96379.09;;;15.80;74.94
5954;BME280;3002;42.642;24.812;2022-12-07T10:39:04;96374.16;;;16.58;68.66
5954;BME280;3002;42.642;24.812;2022-12-07T10:41:36;96373.19;;;17.80;64.90
5954;BME280;3002;42.642;24.812;2022-12-07T10:44:22;96368.19;;;16.44;67.05
5954;BME280;3002;42.642;24.812;2022-12-07T10:47:13;96375.38;;;12.99;90.37
5954;BME280;3002;42.642;24.812;2022-12-07T10:52:18;96370.19;;;15.71;73.86
5954;BME280;3002;42.642;24.812;2022-12-07T10:55:16;96370.13;;;15.07;76.58
5954;BME280;3002;42.642;24.812;2022-12-07T10:57:50;96364.47;;;15.81;74.06
5954;BME280;3002;42.642;24.812;2022-12-07T11:00:22;96347.94;;;16.50;69.52
5954;BME280;3002;42.642;24.812;2022-12-07T11:11:42;96350.03;;;18.92;61.81
5954;BME280;3002;42.642;24.812;2022-12-07T11:17:00;96345.63;;;20.63;58.24
5954;BME280;3002;42.642;24.812;2022-12-07T11:19:54;96330.03;;;21.18;55.23
5954;BME280;3002;42.642;24.812;2022-12-07T11:22:54;96333.50;;;20.80;54.91
5954;BME280;3002;42.642;24.812;2022-12-07T11:25:39;96336.66;;;18.99;58.61
5954;BME280;3002;42.642;24.812;2022-12-07T11:28:11;96332.22;;;17.94;61.47
5954;BME280;3002;42.642;24.812;2022-12-07T11:30:51;96326.38;;;16.03;68.29
5954;BME280;3002;42.642;24.812;2022-12-07T11:34:08;96297.41;;;14.10;80.82
5954;BME280;3002;42.642;24.812;2022-12-07T11:36:35;96330.88;;;14.92;75.72
5954;BME280;3002;42.642;24.812;2022-12-07T11:41:45;96293.81;;;16.92;68.52
5954;BME280;3002;42.642;24.812;2022-12-07T11:52:43;96293.94;;;18.84;59.52
5954;BME280;3002;42.642;24.812;2022-12-07T12:03:55;96289.09;;;14.72;77.32
5954;BME280;3002;42.642;24.812;2022-12-07T12:06:22;96281.00;;;14.81;78.50
5954;BME280;3002;42.642;24.812;2022-12-07T12:12:21;96295.88;;;15.21;76.09
5954;BME280;3002;42.642;24.812;2022-12-07T12:20:29;96295.25;;;16.18;69.82
5954;BME280;3002;42.642;24.812;2022-12-07T12:23:07;96307.66;;;17.11;67.33
5954;BME280;3002;42.642;24.812;2022-12-07T12:25:49;96267.69;;;17.08;66.26
5954;BME280;3002;42.642;24.812;2022-12-07T12:28:24;96294.28;;;16.73;68.23
5954;BME280;3002;42.642;24.812;2022-12-07T12:31:17;96288.72;;;16.91;67.44
5954;BME280;3002;42.642;24.812;2022-12-07T12:33:58;96268.88;;;16.15;69.61
5954;BME280;3002;42.642;24.812;2022-12-07T12:47:42;96279.41;;;18.15;63.17
5954;BME280;3002;42.642;24.812;2022-12-07T12:50:23;96268.28;;;18.45;63.35
5954;BME280;3002;42.642;24.812;2022-12-07T12:53:12;96269.59;;;19.91;59.21
5954;BME280;3002;42.642;24.812;2022-12-07T12:58:29;96258.91;;;17.69;61.16
5954;BME280;3002;42.642;24.812;2022-12-07T13:03:56;96261.25;;;15.79;68.81
5954;BME280;3002;42.642;24.812;2022-12-07T13:08:53;96240.44;;;16.72;64.43
5954;BME280;3002;42.642;24.812;2022-12-07T13:11:42;96255.72;;;16.76;65.47
5954;BME280;3002;42.642;24.812;2022-12-07T13:17:06;96265.19;;;18.06;61.08
5954;BME280;3002;42.642;24.812;2022-12-07T13:19:59;96270.63;;;17.49;61.56
5954;BME280;3002;42.642;24.812;2022-12-07T13:25:30;96271.25;;;19.96;56.47
5954;BME280;3002;42.642;24.812;2022-12-07T13:28:20;96261.84;;;20.09;55.25
5954;BME280;3002;42.642;24.812;2022-12-07T13:31:03;96254.31;;;19.71;55.67
5954;BME280;3002;42.642;24.812;2022-12-07T13:33:32;96246.16;;;18.71;58.17
5954;BME280;3002;42.642;24.812;2022-12-07T13:35:59;96259.06;;;18.09;59.41
5954;BME280;3002;42.642;24.812;2022-12-07T13:38:29;96255.16;;;17.04;62.95
5954;BME280;3002;42.642;24.812;2022-12-07T13:41:12;96249.94;;;17.56;62.31
5954;BME280;3002;42.642;24.812;2022-12-07T13:43:46;96253.84;;;17.22;62.32
5954;BME280;3002;42.642;24.812;2022-12-07T13:46:13;96242.59;;;16.16;64.42
5954;BME280;3002;42.642;24.812;2022-12-07T13:48:47;96232.47;;;15.74;66.27
5954;BME280;3002;42.642;24.812;2022-12-07T13:51:20;96258.56;;;15.79;66.80
5954;BME280;3002;42.642;24.812;2022-12-07T13:54:00;96215.75;;;15.43;67.79
5954;BME280;3002;42.642;24.812;2022-12-07T13:56:32;96243.38;;;15.48;69.72
5954;BME280;3002;42.642;24.812;2022-12-07T13:58:59;96250.38;;;15.41;72.15
5954;BME280;3002;42.642;24.812;2022-12-07T14:01:25;96244.31;;;15.52;69.68
5954;BME280;3002;42.642;24.812;2022-12-07T14:03:51;96262.56;;;15.73;68.24
5954;BME280;3002;42.642;24.812;2022-12-07T14:06:25;96255.88;;;15.62;68.40
5954;BME280;3002;42.642;24.812;2022-12-07T14:09:21;96259.97;;;15.76;68.75
5954;BME280;3002;42.642;24.812;2022-12-07T14:11:49;96242.25;;;14.51;73.37
5954;BME280;3002;42.642;24.812;2022-12-07T14:14:19;96263.88;;;14.59;74.79
5954;BME280;3002;42.642;24.812;2022-12-07T14:16:59;96261.00;;;14.73;74.61
5954;BME280;3002;42.642;24.812;2022-12-07T14:22:28;96267.78;;;14.44;77.50
5954;BME280;3002;42.642;24.812;2022-12-07T14:25:15;96263.50;;;14.35;78.25
5954;BME280;3002;42.642;24.812;2022-12-07T14:30:22;96235.28;;;12.82;88.71
5954;BME280;3002;42.642;24.812;2022-12-07T14:32:52;96258.59;;;12.86;89.98
5954;BME280;3002;42.642;24.812;2022-12-07T14:35:19;96260.88;;;12.35;92.84
5954;BME280;3002;42.642;24.812;2022-12-07T14:37:47;96265.03;;;12.54;95.15
5954;BME280;3002;42.642;24.812;2022-12-07T14:40:15;96266.84;;;13.12;90.24
5954;BME280;3002;42.642;24.812;2022-12-07T14:42:41;96265.69;;;13.05;90.14
5954;BME280;3002;42.642;24.812;2022-12-07T14:45:17;96271.38;;;13.03;90.76
5954;BME280;3002;42.642;24.812;2022-12-07T14:47:44;96233.22;;;12.79;91.34
5954;BME280;3002;42.642;24.812;2022-12-07T14:50:12;96243.75;;;12.67;93.62
5954;BME280;3002;42.642;24.812;2022-12-07T14:52:39;96269.72;;;12.35;98.15
5954;BME280;3002;42.642;24.812;2022-12-07T14:55:07;96231.81;;;12.00;100.00
5954;BME280;3002;42.642;24.812;2022-12-07T14:57:43;96236.59;;;11.90;100.00
5954;BME280;3002;42.642;24.812;2022-12-07T15:00:13;96262.66;;;11.89;100.00
5954;BME280;3002;42.642;24.812;2022-12-07T15:02:39;96256.75;;;11.73;100.00
5954;BME280;3002;42.642;24.812;2022-12-07T15:05:04;96273.84;;;11.36;100.00
5954;BME280;3002;42.642;24.812;2022-12-07T15:07:30;96264.78;;;11.18;100.00
5954;BME280;3002;42.642;24.812;2022-12-07T15:09:55;96244.13;;;10.86;100.00
5954;BME280;3002;42.642;24.812;2022-12-07T15:12:21;96243.28;;;10.72;100.00
5954;BME280;3002;42.642;24.812;2022-12-07T15:14:46;96255.81;;;10.77;100.00
5954;BME280;3002;42.642;24.812;2022-12-07T15:17:13;96277.94;;;11.34;100.00
5954;BME280;3002;42.642;24.812;2022-12-07T15:19:38;96262.56;;;10.74;100.00
5954;BME280;3002;42.642;24.812;2022-12-07T15:22:04;96259.78;;;10.47;100.00
5954;BME280;3002;42.642;24.812;2022-12-07T15:24:29;96286.56;;;10.65;100.00
5954;BME280;3002;42.642;24.812;2022-12-07T15:26:55;96294.66;;;10.79;100.00